sensor_id;sensor_type;location;lat;lon;timestamp;pressure;altitude;pressure_sealevel;temperature;humidity
19208;BME280;9737;59.466;18.036;2023-10-09T00:00:07;93518.44;;;1.45;53.50
19208;BME280;9737;59.466;18.036;2023-10-09T00:03:03;93500.22;;;1.39;53.56
19208;BME280;9737;59.466;18.036;2023-10-09T00:05:35;93483.59;;;1.33;53.73
19208;BME280;9737;59.466;18.036;2023-10-09T00:08:13;93470.97;;;1.30;53.94
19208;BME280;9737;59.466;18.036;2023-10-09T00:10:46;93447.31;;;1.25;53.92
19208;BME280;9737;59.466;18.036;2023-10-09T00:13:20;93446.63;;;1.18;53.87
19208;BME280;9737;59.466;18.036;2023-10-09T00:15:55;93441.31;;;1.24;53.71
19208;BME280;9737;59.466;18.036;2023-10-09T00:18:27;93450.97;;;1.24;53.73
19208;BME280;9737;59.466;18.036;2023-10-09T00:20:58;93448.34;;;1.24;53.72
19208;BME280;9737;59.466;18.036;2023-10-09T00:23:37;93462.56;;;1.28;54.07
19208;BME280;9737;59.466;18.036;2023-10-09T00:26:05;93470.97;;;1.30;53.75
19208;BME280;9737;59.466;18.036;2023-10-09T00:28:37;93467.56;;;1.30;54.05
19208;BME280;9737;59.466;18.036;2023-10-09T00:31:08;93481.22;;;1.32;54.13
19208;BME280;9737;59.466;18.036;2023-10-09T00:33:41;93496.56;;;1.40;54.00
19208;BME280;9737;59.466;18.036;2023-10-09T00:36:11;93521.06;;;1.45;54.34
19208;BME280;9737;59.466;18.036;2023-10-09T00:38:44;93521.47;;;1.42;54.18
19208;BME280;9737;59.466;18.036;2023-10-09T00:41:17;93535.75;;;1.46;54.47
19208;BME280;9737;59.466;18.036;2023-10-09T00:43:49;93547.13;;;1.52;54.42
19208;BME280;9737;59.466;18.036;2023-10-09T00:46:18;93514.22;;;1.44;54.25
19208;BME280;9737;59.466;18.036;2023-10-09T00:48:57;93491.56;;;1.38;54.43
19208;BME280;9737;59.466;18.036;2023-10-09T00:51:30;93489.50;;;1.29;54.41
19208;BME280;9737;59.466;18.036;2023-10-09T00:54:04;93482.81;;;1.33;54.69
19208;BME280;9737;59.466;18.036;2023-10-09T00:56:41;93454.59;;;1.23;54.69
19208;BME280;9737;59.466;18.036;2023-10-09T00:59:15;93450.97;;;1.24;54.70
19208;BME280;9737;59.466;18.036;2023-10-09T01:01:47;93466.88;;;1.22;54.63
19208;BME280;9737;59.466;18.036;2023-10-09T01:04:24;93433.56;;;1.18;54.84
19208;BME280;9737;59.466;18.036;2023-10-09T01:06:57;93396.91;;;1.06;54.84
19208;BME280;9737;59.466;18.036;2023-10-09T01:09:42;93385.31;;;1.02;55.04
19208;BME280;9737;59.466;18.036;2023-10-09T01:12:11;93377.25;;;1.04;54.91
19208;BME280;9737;59.466;18.036;2023-10-09T01:14:45;93392.25;;;1.08;54.78
19208;BME280;9737;59.466;18.036;2023-10-09T01:17:19;93395.31;;;1.05;54.95
19208;BME280;9737;59.466;18.036;2023-10-09T01:20:04;93356.44;;;0.97;54.88
19208;BME280;9737;59.466;18.036;2023-10-09T01:22:33;93358.03;;;0.98;55.00
19208;BME280;9737;59.466;18.036;2023-10-09T01:25:03;93325.19;;;0.90;54.87
19208;BME280;9737;59.466;18.036;2023-10-09T01:27:33;93293.81;;;0.79;54.86
19208;BME280;9737;59.466;18.036;2023-10-09T01:30:01;93276.44;;;0.73;55.05
19208;BME280;9737;59.466;18.036;2023-10-09T01:32:29;93257.56;;;0.71;55.03
19208;BME280;9737;59.466;18.036;2023-10-09T01:34:57;93259.63;;;0.69;54.97
19208;BME280;9737;59.466;18.036;2023-10-09T01:37:25;93238.25;;;0.60;55.19
19208;BME280;9737;59.466;18.036;2023-10-09T01:39:57;93239.16;;;0.66;55.53
19208;BME280;9737;59.466;18.036;2023-10-09T01:42:27;93198.38;;;0.53;55.50
19208;BME280;9737;59.466;18.036;2023-10-09T01:45:02;93159.31;;;0.35;55.40
19208;BME280;9737;59.466;18.036;2023-10-09T01:47:37;93186.34;;;0.52;55.16
19208;BME280;9737;59.466;18.036;2023-10-09T01:50:06;93176.34;;;0.49;55.53
19208;BME280;9737;59.466;18.036;2023-10-09T01:52:38;93205.19;;;0.54;55.28
19208;BME280;9737;59.466;18.036;2023-10-09T01:55:06;93196.22;;;0.50;55.65
19208;BME280;9737;59.466;18.036;2023-10-09T01:57:37;93215.19;;;0.57;55.68
19208;BME280;9737;59.466;18.036;2023-10-09T02:00:07;93213.59;;;0.56;55.50
19208;BME280;9737;59.466;18.036;2023-10-09T02:02:35;93187.25;;;0.46;55.99
19208;BME280;9737;59.466;18.036;2023-10-09T02:05:05;93147.97;;;0.41;55.57
19208;BME280;9737;59.466;18.036;2023-10-09T02:07:37;93132.50;;;0.27;55.73
19208;BME280;9737;59.466;18.036;2023-10-09T02:10:12;93151.81;;;0.38;56.07
19208;BME280;9737;59.466;18.036;2023-10-09T02:12:55;93142.06;;;0.34;55.61
19208;BME280;9737;59.466;18.036;2023-10-09T02:15:26;93171.56;;;0.46;56.12
19208;BME280;9737;59.466;18.036;2023-10-09T02:18:19;93205.19;;;0.54;55.98
19208;BME280;9737;59.466;18.036;2023-10-09T02:21:07;93257.22;;;0.67;55.98
19208;BME280;9737;59.466;18.036;2023-10-09T02:23:41;93282.00;;;0.76;56.24
19208;BME280;9737;59.466;18.036;2023-10-09T02:26:14;93330.09;;;0.87;56.20
19208;BME280;9737;59.466;18.036;2023-10-09T02:28:48;93341.69;;;0.91;56.20
19208;BME280;9737;59.466;18.036;2023-10-09T02:31:29;93340.09;;;0.90;56.64
19208;BME280;9737;59.466;18.036;2023-10-09T02:34:11;93359.28;;;0.96;56.37
19208;BME280;9737;59.466;18.036;2023-10-09T02:36:39;93367.69;;;0.98;56.31
19208;BME280;9737;59.466;18.036;2023-10-09T02:39:09;93351.91;;;0.92;56.57
19208;BME280;9737;59.466;18.036;2023-10-09T02:41:50;93407.16;;;1.08;56.49
19208;BME280;9737;59.466;18.036;2023-10-09T02:44:22;93464.25;;;1.22;56.87
19208;BME280;9737;59.466;18.036;2023-10-09T02:46:57;93456.66;;;1.21;56.76
19208;BME280;9737;59.466;18.036;2023-10-09T02:49:25;93454.25;;;1.19;56.86
19208;BME280;9737;59.466;18.036;2023-10-09T02:51:55;93488.25;;;1.31;56.77
19208;BME280;9737;59.466;18.036;2023-10-09T02:54:22;93471.09;;;1.23;56.82
19208;BME280;9737;59.466;18.036;2023-10-09T02:57:02;93462.66;;;1.21;56.86
19208;BME280;9737;59.466;18.036;2023-10-09T02:59:35;93429.78;;;1.14;57.30
19208;BME280;9737;59.466;18.036;2023-10-09T03:02:11;93409.19;;;1.06;57.00
19208;BME280;9737;59.466;18.036;2023-10-09T03:04:39;93386.56;;;1.00;57.14
19208;BME280;9737;59.466;18.036;2023-10-09T03:07:07;93371.34;;;0.97;57.16
19208;BME280;9737;59.466;18.036;2023-10-09T03:09:37;93349.28;;;0.92;57.34
19208;BME280;9737;59.466;18.036;2023-10-09T03:12:07;93362.94;;;0.95;57.14
19208;BME280;9737;59.466;18.036;2023-10-09T03:14:38;93390.78;;;1.01;57.43
19208;BME280;9737;59.466;18.036;2023-10-09T03:17:06;93392.38;;;1.02;57.18
19208;BME280;9737;59.466;18.036;2023-10-09T03:19:39;93441.81;;;1.15;57.40
19208;BME280;9737;59.466;18.036;2023-10-09T03:22:07;93510.34;;;1.35;57.60
19208;BME280;9737;59.466;18.036;2023-10-09T03:24:38;93527.16;;;1.39;57.53
19208;BME280;9737;59.466;18.036;2023-10-09T03:27:08;93516.59;;;1.34;57.25
19208;BME280;9737;59.466;18.036;2023-10-09T03:29:37;93539.22;;;1.40;58.02
19208;BME280;9737;59.466;18.036;2023-10-09T03:32:05;93519.19;;;1.34;57.98
19208;BME280;9737;59.466;18.036;2023-10-09T03:34:33;93557.69;;;1.45;57.64
19208;BME280;9737;59.466;18.036;2023-10-09T03:37:01;93507.16;;;1.33;57.90
19208;BME280;9737;59.466;18.036;2023-10-09T03:39:32;93478.72;;;1.25;58.02
19208;BME280;9737;59.466;18.036;2023-10-09T03:42:05;93446.72;;;1.11;57.91
19208;BME280;9737;59.466;18.036;2023-10-09T03:44:39;93420.22;;;1.08;57.92
19208;BME280;9737;59.466;18.036;2023-10-09T03:47:14;93412.81;;;1.05;58.12
19208;BME280;9737;59.466;18.036;2023-10-09T03:49:43;93421.59;;;1.10;58.27
19208;BME280;9737;59.466;18.036;2023-10-09T03:52:12;93475.53;;;1.23;58.00
19208;BME280;9737;59.466;18.036;2023-10-09T03:54:44;93428.63;;;1.10;58.38
19208;BME280;9737;59.466;18.036;2023-10-09T03:57:13;93410.22;;;1.05;58.32
19208;BME280;9737;59.466;18.036;2023-10-09T03:59:46;93402.81;;;1.02;58.21
19208;BME280;9737;59.466;18.036;2023-10-09T04:02:15;93394.88;;;0.97;58.06
19208;BME280;9737;59.466;18.036;2023-10-09T04:04:43;93371.78;;;0.93;58.35
19208;BME280;9737;59.466;18.036;2023-10-09T04:07:14;93349.19;;;0.87;58.45
19208;BME280;9737;59.466;18.036;2023-10-09T04:09:43;93308.13;;;0.76;58.03
19208;BME280;9737;59.466;18.036;2023-10-09T04:12:15;93231.75;;;0.51;58.39
19208;BME280;9737;59.466;18.036;2023-10-09T04:14:53;93232.09;;;0.54;58.12
19208;BME280;9737;59.466;18.036;2023-10-09T04:17:24;93287.09;;;0.71;58.35
19208;BME280;9737;59.466;18.036;2023-10-09T04:20:03;93318.13;;;0.79;58.58
19208;BME280;9737;59.466;18.036;2023-10-09T04:22:49;93299.72;;;0.74;58.59
19208;BME280;9737;59.466;18.036;2023-10-09T04:25:27;93326.53;;;0.81;58.55
19208;BME280;9737;59.466;18.036;2023-10-09T04:27:57;93360.75;;;0.91;58.38
19208;BME280;9737;59.466;18.036;2023-10-09T04:30:37;93349.19;;;0.87;58.82
19208;BME280;9737;59.466;18.036;2023-10-09T04:33:10;93324.13;;;0.80;58.50
19208;BME280;9737;59.466;18.036;2023-10-09T04:35:55;93281.31;;;0.69;58.56
19208;BME280;9737;59.466;18.036;2023-10-09T04:38:37;93278.13;;;0.67;59.04
19208;BME280;9737;59.466;18.036;2023-10-09T04:41:05;93272.91;;;0.67;58.75
19208;BME280;9737;59.466;18.036;2023-10-09T04:43:35;93272.91;;;0.67;59.04
19208;BME280;9737;59.466;18.036;2023-10-09T04:46:03;93226.53;;;0.51;58.63
19208;BME280;9737;59.466;18.036;2023-10-09T04:48:36;93213.47;;;0.51;58.70
19208;BME280;9737;59.466;18.036;2023-10-09T04:51:05;93151.50;;;0.35;58.52
19208;BME280;9737;59.466;18.036;2023-10-09T04:53:48;93184.53;;;0.41;58.61
19208;BME280;9737;59.466;18.036;2023-10-09T04:56:27;93188.50;;;0.43;59.00
19208;BME280;9737;59.466;18.036;2023-10-09T04:58:58;93128.88;;;0.28;59.19
19208;BME280;9737;59.466;18.036;2023-10-09T05:01:35;93158.28;;;0.36;59.14
19208;BME280;9737;59.466;18.036;2023-10-09T05:04:11;93176.13;;;0.39;58.80
19208;BME280;9737;59.466;18.036;2023-10-09T05:07:06;93160.13;;;0.35;59.38
19208;BME280;9737;59.466;18.036;2023-10-09T05:09:47;93107.75;;;0.18;58.88
19208;BME280;9737;59.466;18.036;2023-10-09T05:12:24;93086.22;;;0.11;59.31
19208;BME280;9737;59.466;18.036;2023-10-09T05:14:55;93098.91;;;0.19;59.31
19208;BME280;9737;59.466;18.036;2023-10-09T05:17:36;93149.34;;;0.32;59.02
19208;BME280;9737;59.466;18.036;2023-10-09T05:20:06;93148.31;;;0.33;59.29
19208;BME280;9737;59.466;18.036;2023-10-09T05:22:48;93160.91;;;0.36;59.74
19208;BME280;9737;59.466;18.036;2023-10-09T05:25:26;93172.16;;;0.36;59.16
19208;BME280;9737;59.466;18.036;2023-10-09T05:28:12;93146.16;;;0.29;59.45
19208;BME280;9737;59.466;18.036;2023-10-09T05:30:56;93081.00;;;0.11;59.68
19208;BME280;9737;59.466;18.036;2023-10-09T05:33:34;93065.78;;;0.08;59.85
19208;BME280;9737;59.466;18.036;2023-10-09T05:36:05;93071.00;;;0.08;59.69
19208;BME280;9737;59.466;18.036;2023-10-09T05:38:44;93085.66;;;0.09;59.59
19208;BME280;9737;59.466;18.036;2023-10-09T05:41:13;93098.56;;;0.16;59.52
19208;BME280;9737;59.466;18.036;2023-10-09T05:44:14;93090.97;;;0.14;59.59
19208;BME280;9737;59.466;18.036;2023-10-09T05:46:59;93081.22;;;0.10;59.72
19208;BME280;9737;59.466;18.036;2023-10-09T05:49:54;93098.34;;;0.17;59.98
19208;BME280;9737;59.466;18.036;2023-10-09T05:52:29;93102.78;;;0.17;59.99
19208;BME280;9737;59.466;18.036;2023-10-09T05:54:59;93089.38;;;0.13;59.80
19208;BME280;9737;59.466;18.036;2023-10-09T05:58:07;93116.16;;;0.20;60.29
19208;BME280;9737;59.466;18.036;2023-10-09T06:00:52;93130.81;;;0.21;60.19
19208;BME280;9737;59.466;18.036;2023-10-09T06:03:38;93155.56;;;0.30;60.08
19208;BME280;9737;59.466;18.036;2023-10-09T06:06:23;93242.31;;;0.56;60.05
19208;BME280;9737;59.466;18.036;2023-10-09T06:09:09;93339.59;;;0.81;60.33
19208;BME280;9737;59.466;18.036;2023-10-09T06:11:54;93425.31;;;1.03;60.50
19208;BME280;9737;59.466;18.036;2023-10-09T06:14:39;93461.94;;;1.14;60.22
19208;BME280;9737;59.466;18.036;2023-10-09T06:17:31;93503.03;;;1.26;60.41
19208;BME280;9737;59.466;18.036;2023-10-09T06:20:10;93553.31;;;1.39;60.47
19208;BME280;9737;59.466;18.036;2023-10-09T06:22:53;93608.66;;;1.54;60.63
19208;BME280;9737;59.466;18.036;2023-10-09T06:25:24;93630.75;;;1.59;60.65
19208;BME280;9737;59.466;18.036;2023-10-09T06:27:59;93664.44;;;1.67;60.76
19208;BME280;9737;59.466;18.036;2023-10-09T06:30:28;93709.00;;;1.78;61.04
19208;BME280;9737;59.466;18.036;2023-10-09T06:33:01;93743.06;;;1.90;61.07
19208;BME280;9737;59.466;18.036;2023-10-09T06:35:46;93758.91;;;1.95;60.98
19208;BME280;9737;59.466;18.036;2023-10-09T06:38:22;93816.94;;;2.10;61.18
19208;BME280;9737;59.466;18.036;2023-10-09T06:40:50;93830.63;;;2.12;61.09
19208;BME280;9737;59.466;18.036;2023-10-09T06:43:36;93912.97;;;2.35;61.06
19208;BME280;9737;59.466;18.036;2023-10-09T06:46:15;93973.19;;;2.53;61.16
19208;BME280;9737;59.466;18.036;2023-10-09T06:49:15;94059.25;;;2.74;61.62
19208;BME280;9737;59.466;18.036;2023-10-09T06:52:07;94128.84;;;2.95;61.48
19208;BME280;9737;59.466;18.036;2023-10-09T06:54:43;94203.28;;;3.13;61.52
19208;BME280;9737;59.466;18.036;2023-10-09T06:57:17;94234.75;;;3.19;61.76
19208;BME280;9737;59.466;18.036;2023-10-09T07:00:07;94372.44;;;3.60;61.82
19208;BME280;9737;59.466;18.036;2023-10-09T07:02:54;94514.34;;;3.96;61.75
19208;BME280;9737;59.466;18.036;2023-10-09T07:05:24;94643.63;;;4.30;61.65
19208;BME280;9737;59.466;18.036;2023-10-09T07:07:58;94892.66;;;4.99;62.43
19208;BME280;9737;59.466;18.036;2023-10-09T07:10:47;95260.31;;;5.96;62.18
19208;BME280;9737;59.466;18.036;2023-10-09T07:13:29;95697.84;;;7.10;63.04
19208;BME280;9737;59.466;18.036;2023-10-09T07:16:03;95929.31;;;7.70;62.91
19208;BME280;9737;59.466;18.036;2023-10-09T07:18:45;95952.28;;;7.76;63.02
19208;BME280;9737;59.466;18.036;2023-10-09T07:21:21;95974.69;;;7.81;62.91
19208;BME280;9737;59.466;18.036;2023-10-09T07:23:55;96120.22;;;8.20;63.00
19208;BME280;9737;59.466;18.036;2023-10-09T07:26:27;96362.91;;;8.81;62.98
19208;BME280;9737;59.466;18.036;2023-10-09T07:29:05;96594.28;;;9.42;63.24
19208;BME280;9737;59.466;18.036;2023-10-09T07:31:49;96795.34;;;9.94;63.15
19208;BME280;9737;59.466;18.036;2023-10-09T07:34:24;96852.97;;;10.07;63.32
19208;BME280;9737;59.466;18.036;2023-10-09T07:37:09;96809.00;;;9.91;63.86
19208;BME280;9737;59.466;18.036;2023-10-09T07:39:37;96751.97;;;9.81;63.41
19208;BME280;9737;59.466;18.036;2023-10-09T07:42:12;96742.16;;;9.75;63.80
19208;BME280;9737;59.466;18.036;2023-10-09T07:44:47;96772.00;;;9.83;63.62
19208;BME280;9737;59.466;18.036;2023-10-09T07:47:20;96761.56;;;9.82;63.59
19208;BME280;9737;59.466;18.036;2023-10-09T07:50:09;96713.13;;;9.67;63.47
19208;BME280;9737;59.466;18.036;2023-10-09T07:52:38;96725.81;;;9.71;63.57
19208;BME280;9737;59.466;18.036;2023-10-09T07:55:10;96759.31;;;9.79;63.96
19208;BME280;9737;59.466;18.036;2023-10-09T07:57:54;96858.66;;;10.04;63.43
19208;BME280;9737;59.466;18.036;2023-10-09T08:00:22;96878.50;;;10.08;64.13
19208;BME280;9737;59.466;18.036;2023-10-09T08:03:25;96877.47;;;10.09;64.09
19208;BME280;9737;59.466;18.036;2023-10-09T08:05:59;96860.50;;;10.04;63.33
19208;BME280;9737;59.466;18.036;2023-10-09T08:08:56;96871.75;;;10.06;63.67
19208;BME280;9737;59.466;18.036;2023-10-09T08:11:48;96967.28;;;10.27;63.73
19208;BME280;9737;59.466;18.036;2023-10-09T08:14:42;97082.31;;;10.55;64.11
19208;BME280;9737;59.466;18.036;2023-10-09T08:17:15;97199.09;;;10.92;63.66
19208;BME280;9737;59.466;18.036;2023-10-09T08:19:48;97390.78;;;11.39;63.88
19208;BME280;9737;59.466;18.036;2023-10-09T08:22:22;97660.59;;;12.10;64.06
19208;BME280;9737;59.466;18.036;2023-10-09T08:25:07;97896.34;;;12.65;64.27
19208;BME280;9737;59.466;18.036;2023-10-09T08:27:43;98026.25;;;13.01;64.41
19208;BME280;9737;59.466;18.036;2023-10-09T08:30:23;97933.56;;;12.74;64.00
19208;BME280;9737;59.466;18.036;2023-10-09T08:33:08;97972.63;;;12.81;64.44
19208;BME280;9737;59.466;18.036;2023-10-09T08:35:56;97923.75;;;12.74;64.21
19208;BME280;9737;59.466;18.036;2023-10-09T08:38:31;97894.88;;;12.63;64.20
19208;BME280;9737;59.466;18.036;2023-10-09T08:41:08;97945.53;;;12.78;64.24
19208;BME280;9737;59.466;18.036;2023-10-09T08:43:48;98185.00;;;13.35;64.08
19208;BME280;9737;59.466;18.036;2023-10-09T08:46:23;98337.66;;;13.68;64.32
19208;BME280;9737;59.466;18.036;2023-10-09T08:48:55;98563.50;;;14.31;64.26
19208;BME280;9737;59.466;18.036;2023-10-09T08:51:26;98909.50;;;15.14;64.16
19208;BME280;9737;59.466;18.036;2023-10-09T08:53:54;99194.22;;;15.85;64.31
19208;BME280;9737;59.466;18.036;2023-10-09T08:56:22;99571.13;;;16.76;64.44
19208;BME280;9737;59.466;18.036;2023-10-09T08:58:51;99891.16;;;17.52;64.37
19208;BME280;9737;59.466;18.036;2023-10-09T09:01:20;100220.72;;;18.30;64.55
19208;BME280;9737;59.466;18.036;2023-10-09T09:03:51;100526.22;;;19.02;64.50
19208;BME280;9737;59.466;18.036;2023-10-09T09:06:22;100467.56;;;18.87;64.45
19208;BME280;9737;59.466;18.036;2023-10-09T09:08:51;100370.53;;;18.63;64.67
19208;BME280;9737;59.466;18.036;2023-10-09T09:11:22;100287.34;;;18.44;64.42
19208;BME280;9737;59.466;18.036;2023-10-09T09:14:00;100251.66;;;18.34;64.43
19208;BME280;9737;59.466;18.036;2023-10-09T09:16:32;100200.53;;;18.25;64.22
19208;BME280;9737;59.466;18.036;2023-10-09T09:19:04;100240.06;;;18.33;64.17
19208;BME280;9737;59.466;18.036;2023-10-09T09:21:49;100676.97;;;19.37;64.08
19208;BME280;9737;59.466;18.036;2023-10-09T09:24:21;100903.47;;;19.89;64.18
19208;BME280;9737;59.466;18.036;2023-10-09T09:27:01;101207.44;;;20.61;64.07
19208;BME280;9737;59.466;18.036;2023-10-09T09:29:40;101393.38;;;21.01;64.15
19208;BME280;9737;59.466;18.036;2023-10-09T09:32:10;101367.84;;;20.96;63.99
19208;BME280;9737;59.466;18.036;2023-10-09T09:34:47;101673.97;;;21.62;64.00
19208;BME280;9737;59.466;18.036;2023-10-09T09:37:19;102103.72;;;22.64;64.09
19208;BME280;9737;59.466;18.036;2023-10-09T09:39:48;102258.47;;;22.99;63.73
19208;BME280;9737;59.466;18.036;2023-10-09T09:42:22;102674.78;;;23.93;63.70
19208;BME280;9737;59.466;18.036;2023-10-09T09:44:54;102761.75;;;24.13;63.51
19208;BME280;9737;59.466;18.036;2023-10-09T09:47:24;102693.22;;;23.99;63.43
19208;BME280;9737;59.466;18.036;2023-10-09T09:49:56;102931.19;;;24.52;63.45
19208;BME280;9737;59.466;18.036;2023-10-09T09:52:30;102950.22;;;24.52;63.38
19208;BME280;9737;59.466;18.036;2023-10-09T09:55:07;103103.50;;;24.91;63.35
19208;BME280;9737;59.466;18.036;2023-10-09T09:57:44;103443.28;;;25.68;63.08
19208;BME280;9737;59.466;18.036;2023-10-09T10:00:20;103197.66;;;25.13;62.93
19208;BME280;9737;59.466;18.036;2023-10-09T10:03:01;102967.28;;;24.63;62.69
19208;BME280;9737;59.466;18.036;2023-10-09T10:05:33;103350.56;;;25.48;62.70
19208;BME280;9737;59.466;18.036;2023-10-09T10:08:02;103604.41;;;26.05;62.56
19208;BME280;9737;59.466;18.036;2023-10-09T10:10:37;103793.56;;;26.45;62.38
19208;BME280;9737;59.466;18.036;2023-10-09T10:13:17;103755.19;;;26.37;62.22
19208;BME280;9737;59.466;18.036;2023-10-09T10:16:04;103651.53;;;26.16;62.11
19208;BME280;9737;59.466;18.036;2023-10-09T10:18:57;103508.78;;;25.87;61.70
19208;BME280;9737;59.466;18.036;2023-10-09T10:21:35;103415.03;;;25.69;61.71
19208;BME280;9737;59.466;18.036;2023-10-09T10:27:21;103917.59;;;26.83;61.02
19208;BME280;9737;59.466;18.036;2023-10-09T10:30:28;103753.50;;;26.46;60.97
19208;BME280;9737;59.466;18.036;2023-10-09T10:33:03;103862.94;;;26.73;60.71
19208;BME280;9737;59.466;18.036;2023-10-09T10:35:43;103838.78;;;26.69;60.70
19208;BME280;9737;59.466;18.036;2023-10-09T10:38:31;103875.31;;;26.77;60.36
19208;BME280;9737;59.466;18.036;2023-10-09T10:41:13;104057.31;;;27.20;60.30
19208;BME280;9737;59.466;18.036;2023-10-09T10:43:45;103934.06;;;26.93;59.74
19208;BME280;9737;59.466;18.036;2023-10-09T10:46:22;103775.06;;;26.59;59.90
19208;BME280;9737;59.466;18.036;2023-10-09T10:49:06;104053.28;;;27.24;59.56
19208;BME280;9737;59.466;18.036;2023-10-09T10:51:48;103952.25;;;27.03;59.09
19208;BME280;9737;59.466;18.036;2023-10-09T10:54:29;103684.25;;;26.47;59.42
19208;BME280;9737;59.466;18.036;2023-10-09T10:57:35;104056.47;;;27.29;59.13
19208;BME280;9737;59.466;18.036;2023-10-09T11:00:20;103966.22;;;27.10;58.88
19208;BME280;9737;59.466;18.036;2023-10-09T11:03:06;103995.47;;;27.19;58.51
19208;BME280;9737;59.466;18.036;2023-10-09T11:05:45;103728.41;;;26.62;58.21
19208;BME280;9737;59.466;18.036;2023-10-09T11:08:23;103748.69;;;26.69;57.99
19208;BME280;9737;59.466;18.036;2023-10-09T11:11:10;103557.50;;;26.30;58.00
19208;BME280;9737;59.466;18.036;2023-10-09T11:13:42;103258.19;;;25.64;57.83
19208;BME280;9737;59.466;18.036;2023-10-09T11:16:24;102804.88;;;24.64;57.56
19208;BME280;9737;59.466;18.036;2023-10-09T11:19:10;102201.47;;;23.27;57.42
19208;BME280;9737;59.466;18.036;2023-10-09T11:21:50;102049.84;;;22.96;56.81
19208;BME280;9737;59.466;18.036;2023-10-09T11:24:27;101934.97;;;22.70;56.75
19208;BME280;9737;59.466;18.036;2023-10-09T11:27:01;102048.69;;;22.99;56.51
19208;BME280;9737;59.466;18.036;2023-10-09T11:29:33;101818.00;;;22.47;56.16
19208;BME280;9737;59.466;18.036;2023-10-09T11:32:16;101372.75;;;21.44;56.26
19208;BME280;9737;59.466;18.036;2023-10-09T11:34:50;101414.75;;;21.56;55.99
19208;BME280;9737;59.466;18.036;2023-10-09T11:37:22;101126.31;;;20.87;55.81
19208;BME280;9737;59.466;18.036;2023-10-09T11:40:06;101133.06;;;20.91;55.58
19208;BME280;9737;59.466;18.036;2023-10-09T11:42:51;100825.44;;;20.20;55.49
19208;BME280;9737;59.466;18.036;2023-10-09T11:45:26;100766.88;;;20.04;55.27
19208;BME280;9737;59.466;18.036;2023-10-09T11:47:58;100807.72;;;20.18;55.11
19208;BME280;9737;59.466;18.036;2023-10-09T11:50:39;100884.06;;;20.36;54.95
19208;BME280;9737;59.466;18.036;2023-10-09T11:53:11;100596.78;;;19.64;54.68
19208;BME280;9737;59.466;18.036;2023-10-09T11:56:00;100610.31;;;19.72;54.55
19208;BME280;9737;59.466;18.036;2023-10-09T11:58:30;100624.97;;;19.77;54.50
19208;BME280;9737;59.466;18.036;2023-10-09T12:00:58;100420.75;;;19.29;54.24
19208;BME280;9737;59.466;18.036;2023-10-09T12:03:31;100412.00;;;19.27;54.29
19208;BME280;9737;59.466;18.036;2023-10-09T12:06:02;100326.09;;;19.08;54.00
19208;BME280;9737;59.466;18.036;2023-10-09T12:08:33;100344.47;;;19.12;53.83
19208;BME280;9737;59.466;18.036;2023-10-09T12:11:02;99975.63;;;18.23;53.80
19208;BME280;9737;59.466;18.036;2023-10-09T12:13:36;99661.50;;;17.47;53.55
19208;BME280;9737;59.466;18.036;2023-10-09T12:16:06;99507.03;;;17.12;53.44
19208;BME280;9737;59.466;18.036;2023-10-09T12:18:36;99555.34;;;17.20;53.42
19208;BME280;9737;59.466;18.036;2023-10-09T12:21:06;99462.75;;;16.99;53.21
19208;BME280;9737;59.466;18.036;2023-10-09T12:23:34;99606.78;;;17.40;53.20
19208;BME280;9737;59.466;18.036;2023-10-09T12:26:02;99931.19;;;18.19;53.17
19208;BME280;9737;59.466;18.036;2023-10-09T12:28:31;100158.22;;;18.75;53.01
19208;BME280;9737;59.466;18.036;2023-10-09T12:31:01;100325.06;;;19.17;53.02
19208;BME280;9737;59.466;18.036;2023-10-09T12:33:29;100505.75;;;19.58;53.05
19208;BME280;9737;59.466;18.036;2023-10-09T12:35:58;100526.47;;;19.65;53.01
19208;BME280;9737;59.466;18.036;2023-10-09T12:38:28;100653.50;;;19.96;52.83
19208;BME280;9737;59.466;18.036;2023-10-09T12:41:03;100827.72;;;20.41;52.91
19208;BME280;9737;59.466;18.036;2023-10-09T12:43:44;100870.78;;;20.51;52.74
19208;BME280;9737;59.466;18.036;2023-10-09T12:46:13;100975.03;;;20.78;52.67
19208;BME280;9737;59.466;18.036;2023-10-09T12:48:43;101062.97;;;20.98;52.63
19208;BME280;9737;59.466;18.036;2023-10-09T12:51:13;100861.84;;;20.50;52.57
19208;BME280;9737;59.466;18.036;2023-10-09T12:53:43;100735.66;;;20.18;52.37
19208;BME280;9737;59.466;18.036;2023-10-09T12:56:11;100602.19;;;19.88;52.31
19208;BME280;9737;59.466;18.036;2023-10-09T12:58:39;100362.13;;;19.31;52.07
19208;BME280;9737;59.466;18.036;2023-10-09T13:01:21;100017.41;;;18.42;51.99
19208;BME280;9737;59.466;18.036;2023-10-09T13:03:49;99876.22;;;18.13;51.81
19208;BME280;9737;59.466;18.036;2023-10-09T13:06:17;99887.66;;;18.15;51.83
19208;BME280;9737;59.466;18.036;2023-10-09T13:08:51;100066.50;;;18.60;51.74
19208;BME280;9737;59.466;18.036;2023-10-09T13:11:19;100064.66;;;18.61;51.57
19208;BME280;9737;59.466;18.036;2023-10-09T13:13:47;100100.50;;;18.69;51.50
19208;BME280;9737;59.466;18.036;2023-10-09T13:16:19;100198.09;;;18.96;51.47
19208;BME280;9737;59.466;18.036;2023-10-09T13:19:16;99944.78;;;18.34;51.39
19208;BME280;9737;59.466;18.036;2023-10-09T13:21:44;99591.81;;;17.45;51.14
19208;BME280;9737;59.466;18.036;2023-10-09T13:24:15;99306.53;;;16.73;51.03
19208;BME280;9737;59.466;18.036;2023-10-09T13:26:43;99028.56;;;16.03;50.72
19208;BME280;9737;59.466;18.036;2023-10-09T13:29:13;98776.03;;;15.41;51.08
19208;BME280;9737;59.466;18.036;2023-10-09T13:31:49;98720.22;;;15.30;50.68
19208;BME280;9737;59.466;18.036;2023-10-09T13:34:20;98474.38;;;14.68;50.42
19208;BME280;9737;59.466;18.036;2023-10-09T13:36:48;98260.06;;;14.05;50.15
19208;BME280;9737;59.466;18.036;2023-10-09T13:39:20;98160.59;;;13.88;50.37
19208;BME280;9737;59.466;18.036;2023-10-09T13:41:52;98258.09;;;14.14;50.18
19208;BME280;9737;59.466;18.036;2023-10-09T13:44:25;98376.34;;;14.45;50.02
19208;BME280;9737;59.466;18.036;2023-10-09T13:46:56;98370.34;;;14.43;50.18
19208;BME280;9737;59.466;18.036;2023-10-09T13:49:26;98336.69;;;14.34;50.06